CheckWX is a tool to help pilots better visualize weather data.  It is not intended as a substitute for an official pre-flight weather briefing.

06:07:31 UTC

KADW TAF
Joint Base Andrews Airport
Camp Springs, Maryland, USA
TAF KADW 260100Z 2601/2707 VRB06KT 9999 FEW050 QNH2992INS TX32/2620Z TN22/2608Z

Jun-26@
01:00 UTC

Jun-26 @ 01:00 UTC

Jun-27@
07:00 UTC

Jun-27 @ 07:00 UTC

TAF KADW 260100Z 2601/2707 VRB06KT 9999 FEW050 QNH2992INS TX32/2620Z TN22/2608Z
Wind
  • Variable at 6 KTS
Cloud Levels
  • Few at 5,000' AGL